sensor_id;sensor_type;location;lat;lon;timestamp;temperature;humidity
2621;DHT22;1320;48.128;11.592;2023-03-11T00:00:53;4.90;96.00
2621;DHT22;1320;48.128;11.592;2023-03-11T00:03:20;4.90;96.10
2621;DHT22;1320;48.128;11.592;2023-03-11T00:05:49;4.90;96.20
2621;DHT22;1320;48.128;11.592;2023-03-11T00:08:18;4.80;96.00
2621;DHT22;1320;48.128;11.592;2023-03-11T00:10:45;4.80;95.30
2621;DHT22;1320;48.128;11.592;2023-03-11T00:13:13;4.70;95.10
2621;DHT22;1320;48.128;11.592;2023-03-11T00:15:39;4.60;95.00
2621;DHT22;1320;48.128;11.592;2023-03-11T00:18:05;4.60;95.10
2621;DHT22;1320;48.128;11.592;2023-03-11T00:20:37;4.60;95.10
2621;DHT22;1320;48.128;11.592;2023-03-11T00:23:05;4.60;94.70
2621;DHT22;1320;48.128;11.592;2023-03-11T00:25:32;4.50;94.50
2621;DHT22;1320;48.128;11.592;2023-03-11T00:27:59;4.40;94.40
2621;DHT22;1320;48.128;11.592;2023-03-11T00:30:26;4.40;94.70
2621;DHT22;1320;48.128;11.592;2023-03-11T00:32:54;4.30;94.70
2621;DHT22;1320;48.128;11.592;2023-03-11T00:35:23;4.20;94.60
2621;DHT22;1320;48.128;11.592;2023-03-11T00:37:52;4.10;94.80
2621;DHT22;1320;48.128;11.592;2023-03-11T00:40:19;4.10;94.70
2621;DHT22;1320;48.128;11.592;2023-03-11T00:42:45;4.10;94.70
2621;DHT22;1320;48.128;11.592;2023-03-11T00:45:12;4.00;94.70
2621;DHT22;1320;48.128;11.592;2023-03-11T00:47:38;4.00;94.90
2621;DHT22;1320;48.128;11.592;2023-03-11T00:50:05;4.00;95.00
2621;DHT22;1320;48.128;11.592;2023-03-11T00:52:31;4.00;94.80
2621;DHT22;1320;48.128;11.592;2023-03-11T00:54:57;4.10;94.90
2621;DHT22;1320;48.128;11.592;2023-03-11T00:57:23;4.00;95.00
2621;DHT22;1320;48.128;11.592;2023-03-11T00:59:49;4.00;95.10
2621;DHT22;1320;48.128;11.592;2023-03-11T01:02:15;4.00;95.10
2621;DHT22;1320;48.128;11.592;2023-03-11T01:04:40;4.00;95.10
2621;DHT22;1320;48.128;11.592;2023-03-11T01:07:06;4.00;95.10
2621;DHT22;1320;48.128;11.592;2023-03-11T01:09:32;3.90;95.30
2621;DHT22;1320;48.128;11.592;2023-03-11T01:11:57;3.90;95.40
2621;DHT22;1320;48.128;11.592;2023-03-11T01:14:23;3.90;95.40
2621;DHT22;1320;48.128;11.592;2023-03-11T01:16:49;3.90;95.60
2621;DHT22;1320;48.128;11.592;2023-03-11T01:19:15;3.90;95.50
2621;DHT22;1320;48.128;11.592;2023-03-11T01:21:41;3.80;95.30
2621;DHT22;1320;48.128;11.592;2023-03-11T01:24:07;3.90;95.60
2621;DHT22;1320;48.128;11.592;2023-03-11T01:26:33;3.90;95.60
2621;DHT22;1320;48.128;11.592;2023-03-11T01:28:58;3.90;95.60
2621;DHT22;1320;48.128;11.592;2023-03-11T01:31:24;3.90;95.60
2621;DHT22;1320;48.128;11.592;2023-03-11T01:33:50;3.90;95.70
2621;DHT22;1320;48.128;11.592;2023-03-11T01:36:15;3.90;95.70
2621;DHT22;1320;48.128;11.592;2023-03-11T01:38:41;3.90;95.80
2621;DHT22;1320;48.128;11.592;2023-03-11T01:41:07;3.90;95.80
2621;DHT22;1320;48.128;11.592;2023-03-11T01:46:26;3.80;95.70
2621;DHT22;1320;48.128;11.592;2023-03-11T01:48:53;3.80;95.70
2621;DHT22;1320;48.128;11.592;2023-03-11T01:51:36;3.80;95.50
2621;DHT22;1320;48.128;11.592;2023-03-11T01:54:12;3.80;95.60
2621;DHT22;1320;48.128;11.592;2023-03-11T01:56:40;3.70;95.40
2621;DHT22;1320;48.128;11.592;2023-03-11T01:59:13;3.70;95.40
2621;DHT22;1320;48.128;11.592;2023-03-11T02:01:49;3.70;95.40
2621;DHT22;1320;48.128;11.592;2023-03-11T02:04:17;3.70;95.50
2621;DHT22;1320;48.128;11.592;2023-03-11T02:06:43;3.60;95.30
2621;DHT22;1320;48.128;11.592;2023-03-11T02:09:08;3.60;95.00
2621;DHT22;1320;48.128;11.592;2023-03-11T02:11:34;3.60;94.90
2621;DHT22;1320;48.128;11.592;2023-03-11T02:14:03;3.60;94.80
2621;DHT22;1320;48.128;11.592;2023-03-11T02:16:30;3.50;94.90
2621;DHT22;1320;48.128;11.592;2023-03-11T02:18:59;3.50;94.80
2621;DHT22;1320;48.128;11.592;2023-03-11T02:21:31;3.50;94.70
2621;DHT22;1320;48.128;11.592;2023-03-11T02:27:17;3.50;94.70
2621;DHT22;1320;48.128;11.592;2023-03-11T02:29:45;3.50;94.50
2621;DHT22;1320;48.128;11.592;2023-03-11T02:32:14;3.50;94.50
2621;DHT22;1320;48.128;11.592;2023-03-11T02:34:40;3.40;94.90
2621;DHT22;1320;48.128;11.592;2023-03-11T02:39:38;3.40;94.70
2621;DHT22;1320;48.128;11.592;2023-03-11T02:42:09;3.40;94.90
2621;DHT22;1320;48.128;11.592;2023-03-11T02:44:36;3.40;94.90
2621;DHT22;1320;48.128;11.592;2023-03-11T02:47:03;3.40;95.10
2621;DHT22;1320;48.128;11.592;2023-03-11T02:51:55;3.50;94.70
2621;DHT22;1320;48.128;11.592;2023-03-11T02:54:20;3.50;95.10
2621;DHT22;1320;48.128;11.592;2023-03-11T02:56:46;3.50;95.00
2621;DHT22;1320;48.128;11.592;2023-03-11T02:59:12;3.40;94.70
2621;DHT22;1320;48.128;11.592;2023-03-11T03:01:37;3.30;94.60
2621;DHT22;1320;48.128;11.592;2023-03-11T03:04:03;3.20;94.50
2621;DHT22;1320;48.128;11.592;2023-03-11T03:06:29;3.20;94.40
2621;DHT22;1320;48.128;11.592;2023-03-11T03:08:55;3.10;94.50
2621;DHT22;1320;48.128;11.592;2023-03-11T03:11:21;3.10;96.40
2621;DHT22;1320;48.128;11.592;2023-03-11T03:13:46;3.10;94.50
2621;DHT22;1320;48.128;11.592;2023-03-11T03:16:12;3.10;94.80
2621;DHT22;1320;48.128;11.592;2023-03-11T03:18:37;3.20;94.60
2621;DHT22;1320;48.128;11.592;2023-03-11T03:21:03;3.20;94.50
2621;DHT22;1320;48.128;11.592;2023-03-11T03:23:29;3.20;94.60
2621;DHT22;1320;48.128;11.592;2023-03-11T03:26:00;3.20;94.50
2621;DHT22;1320;48.128;11.592;2023-03-11T03:28:25;3.20;94.60
2621;DHT22;1320;48.128;11.592;2023-03-11T03:30:51;3.20;94.50
2621;DHT22;1320;48.128;11.592;2023-03-11T03:33:16;3.20;94.40
2621;DHT22;1320;48.128;11.592;2023-03-11T03:35:43;3.20;94.40
2621;DHT22;1320;48.128;11.592;2023-03-11T03:38:10;3.20;94.30
2621;DHT22;1320;48.128;11.592;2023-03-11T03:40:39;3.20;94.20
2621;DHT22;1320;48.128;11.592;2023-03-11T03:43:05;3.20;94.30
2621;DHT22;1320;48.128;11.592;2023-03-11T03:45:30;3.10;94.30
2621;DHT22;1320;48.128;11.592;2023-03-11T03:47:56;3.10;94.30
2621;DHT22;1320;48.128;11.592;2023-03-11T03:50:22;3.10;94.30
2621;DHT22;1320;48.128;11.592;2023-03-11T03:52:48;3.10;94.00
2621;DHT22;1320;48.128;11.592;2023-03-11T03:55:13;3.10;94.10
2621;DHT22;1320;48.128;11.592;2023-03-11T03:57:39;3.10;94.20
2621;DHT22;1320;48.128;11.592;2023-03-11T04:00:11;3.10;94.20
2621;DHT22;1320;48.128;11.592;2023-03-11T04:02:37;3.10;94.20
2621;DHT22;1320;48.128;11.592;2023-03-11T04:05:03;3.00;94.60
2621;DHT22;1320;48.128;11.592;2023-03-11T04:07:29;3.10;94.30
2621;DHT22;1320;48.128;11.592;2023-03-11T04:09:54;3.10;94.10
2621;DHT22;1320;48.128;11.592;2023-03-11T04:12:20;3.10;94.30
2621;DHT22;1320;48.128;11.592;2023-03-11T04:14:45;3.00;94.10
2621;DHT22;1320;48.128;11.592;2023-03-11T04:17:13;3.00;94.20
2621;DHT22;1320;48.128;11.592;2023-03-11T04:19:39;3.10;94.40
2621;DHT22;1320;48.128;11.592;2023-03-11T04:22:05;3.10;94.30
2621;DHT22;1320;48.128;11.592;2023-03-11T04:24:31;3.10;94.20
2621;DHT22;1320;48.128;11.592;2023-03-11T04:26:56;3.10;94.20
2621;DHT22;1320;48.128;11.592;2023-03-11T04:29:22;3.10;94.30
2621;DHT22;1320;48.128;11.592;2023-03-11T04:31:48;3.00;94.50
2621;DHT22;1320;48.128;11.592;2023-03-11T04:34:13;3.00;94.60
2621;DHT22;1320;48.128;11.592;2023-03-11T04:36:39;3.00;94.80
2621;DHT22;1320;48.128;11.592;2023-03-11T04:39:05;3.00;94.70
2621;DHT22;1320;48.128;11.592;2023-03-11T04:41:31;3.00;94.70
2621;DHT22;1320;48.128;11.592;2023-03-11T04:43:58;3.00;94.70
2621;DHT22;1320;48.128;11.592;2023-03-11T04:46:24;2.90;94.80
2621;DHT22;1320;48.128;11.592;2023-03-11T04:48:50;2.90;94.90
2621;DHT22;1320;48.128;11.592;2023-03-11T04:51:16;2.90;95.00
2621;DHT22;1320;48.128;11.592;2023-03-11T04:53:41;3.00;94.90
2621;DHT22;1320;48.128;11.592;2023-03-11T04:56:07;3.00;94.90
2621;DHT22;1320;48.128;11.592;2023-03-11T04:58:33;3.00;95.20
2621;DHT22;1320;48.128;11.592;2023-03-11T05:00:58;3.00;95.10
2621;DHT22;1320;48.128;11.592;2023-03-11T05:03:24;3.00;95.10
2621;DHT22;1320;48.128;11.592;2023-03-11T05:05:50;3.10;95.00
2621;DHT22;1320;48.128;11.592;2023-03-11T05:08:18;3.10;95.00
2621;DHT22;1320;48.128;11.592;2023-03-11T05:10:44;3.10;95.00
2621;DHT22;1320;48.128;11.592;2023-03-11T05:13:10;3.20;95.00
2621;DHT22;1320;48.128;11.592;2023-03-11T05:15:35;3.20;95.00
2621;DHT22;1320;48.128;11.592;2023-03-11T05:18:02;3.20;95.00
2621;DHT22;1320;48.128;11.592;2023-03-11T05:20:28;3.20;95.00
2621;DHT22;1320;48.128;11.592;2023-03-11T05:22:55;3.20;95.20
2621;DHT22;1320;48.128;11.592;2023-03-11T05:25:21;3.30;95.20
2621;DHT22;1320;48.128;11.592;2023-03-11T05:27:46;3.30;95.20
2621;DHT22;1320;48.128;11.592;2023-03-11T05:30:12;3.40;95.30
2621;DHT22;1320;48.128;11.592;2023-03-11T05:32:39;3.30;95.20
2621;DHT22;1320;48.128;11.592;2023-03-11T05:35:06;3.30;95.30
2621;DHT22;1320;48.128;11.592;2023-03-11T05:37:32;3.20;95.40
2621;DHT22;1320;48.128;11.592;2023-03-11T05:39:57;3.30;95.60
2621;DHT22;1320;48.128;11.592;2023-03-11T05:42:23;3.30;95.50
2621;DHT22;1320;48.128;11.592;2023-03-11T05:44:49;3.30;95.40
2621;DHT22;1320;48.128;11.592;2023-03-11T05:47:16;3.30;95.60
2621;DHT22;1320;48.128;11.592;2023-03-11T05:49:42;3.30;95.60
2621;DHT22;1320;48.128;11.592;2023-03-11T05:52:07;3.30;95.60
2621;DHT22;1320;48.128;11.592;2023-03-11T05:54:34;3.40;95.60
2621;DHT22;1320;48.128;11.592;2023-03-11T05:56:59;3.40;95.60
2621;DHT22;1320;48.128;11.592;2023-03-11T05:59:25;3.40;95.40
2621;DHT22;1320;48.128;11.592;2023-03-11T06:01:51;3.50;94.90
2621;DHT22;1320;48.128;11.592;2023-03-11T06:04:16;3.40;94.60
2621;DHT22;1320;48.128;11.592;2023-03-11T06:06:42;3.40;94.10
2621;DHT22;1320;48.128;11.592;2023-03-11T06:09:14;3.40;94.10
2621;DHT22;1320;48.128;11.592;2023-03-11T06:11:40;3.30;94.10
2621;DHT22;1320;48.128;11.592;2023-03-11T06:14:08;3.30;93.60
2621;DHT22;1320;48.128;11.592;2023-03-11T06:16:35;3.30;93.60
2621;DHT22;1320;48.128;11.592;2023-03-11T06:19:00;3.20;93.30
2621;DHT22;1320;48.128;11.592;2023-03-11T06:21:27;3.10;93.10
2621;DHT22;1320;48.128;11.592;2023-03-11T06:23:53;3.10;93.50
2621;DHT22;1320;48.128;11.592;2023-03-11T06:26:20;3.20;93.40
2621;DHT22;1320;48.128;11.592;2023-03-11T06:28:47;3.20;92.80
2621;DHT22;1320;48.128;11.592;2023-03-11T06:31:18;3.20;92.70
2621;DHT22;1320;48.128;11.592;2023-03-11T06:33:45;3.30;92.50
2621;DHT22;1320;48.128;11.592;2023-03-11T06:36:12;3.30;92.50
2621;DHT22;1320;48.128;11.592;2023-03-11T06:38:38;3.40;92.40
2621;DHT22;1320;48.128;11.592;2023-03-11T06:41:05;3.50;92.00
2621;DHT22;1320;48.128;11.592;2023-03-11T06:43:32;3.50;91.70
2621;DHT22;1320;48.128;11.592;2023-03-11T06:45:58;3.50;91.20
2621;DHT22;1320;48.128;11.592;2023-03-11T06:48:24;3.40;91.10
2621;DHT22;1320;48.128;11.592;2023-03-11T06:50:57;3.20;91.20
2621;DHT22;1320;48.128;11.592;2023-03-11T06:53:24;3.10;91.20
2621;DHT22;1320;48.128;11.592;2023-03-11T06:56:09;3.10;91.50
2621;DHT22;1320;48.128;11.592;2023-03-11T06:58:36;3.00;91.80
2621;DHT22;1320;48.128;11.592;2023-03-11T07:01:04;3.00;91.70
2621;DHT22;1320;48.128;11.592;2023-03-11T07:03:31;3.00;92.00
2621;DHT22;1320;48.128;11.592;2023-03-11T07:05:57;3.10;91.90
2621;DHT22;1320;48.128;11.592;2023-03-11T07:08:23;3.10;91.90
2621;DHT22;1320;48.128;11.592;2023-03-11T07:11:08;3.00;92.10
2621;DHT22;1320;48.128;11.592;2023-03-11T07:13:34;3.10;92.20
2621;DHT22;1320;48.128;11.592;2023-03-11T07:18:31;2.90;92.70
2621;DHT22;1320;48.128;11.592;2023-03-11T07:20:57;2.90;92.90
2621;DHT22;1320;48.128;11.592;2023-03-11T07:23:23;3.00;94.10
2621;DHT22;1320;48.128;11.592;2023-03-11T07:25:49;3.10;93.40
2621;DHT22;1320;48.128;11.592;2023-03-11T07:28:17;3.30;93.10
2621;DHT22;1320;48.128;11.592;2023-03-11T07:30:43;3.30;93.00
2621;DHT22;1320;48.128;11.592;2023-03-11T07:33:11;3.40;93.30
2621;DHT22;1320;48.128;11.592;2023-03-11T07:35:37;3.40;92.90
2621;DHT22;1320;48.128;11.592;2023-03-11T07:38:02;3.40;93.00
2621;DHT22;1320;48.128;11.592;2023-03-11T07:40:28;3.40;93.20
2621;DHT22;1320;48.128;11.592;2023-03-11T07:42:54;3.40;93.10
2621;DHT22;1320;48.128;11.592;2023-03-11T07:45:19;3.40;93.00
2621;DHT22;1320;48.128;11.592;2023-03-11T07:47:45;3.50;92.80
2621;DHT22;1320;48.128;11.592;2023-03-11T07:50:11;3.50;93.10
2621;DHT22;1320;48.128;11.592;2023-03-11T07:52:36;3.70;92.60
2621;DHT22;1320;48.128;11.592;2023-03-11T07:55:02;3.70;92.70
2621;DHT22;1320;48.128;11.592;2023-03-11T07:57:28;3.90;92.90
2621;DHT22;1320;48.128;11.592;2023-03-11T07:59:54;4.10;92.40
2621;DHT22;1320;48.128;11.592;2023-03-11T08:02:19;4.40;91.90
2621;DHT22;1320;48.128;11.592;2023-03-11T08:04:45;4.60;92.00
2621;DHT22;1320;48.128;11.592;2023-03-11T08:07:11;4.80;91.20
2621;DHT22;1320;48.128;11.592;2023-03-11T08:09:36;4.90;90.90
2621;DHT22;1320;48.128;11.592;2023-03-11T08:12:02;4.90;90.80
2621;DHT22;1320;48.128;11.592;2023-03-11T08:14:28;5.00;91.10
2621;DHT22;1320;48.128;11.592;2023-03-11T08:16:53;5.30;91.30
2621;DHT22;1320;48.128;11.592;2023-03-11T08:19:19;5.60;90.40
2621;DHT22;1320;48.128;11.592;2023-03-11T08:21:45;5.80;90.60
2621;DHT22;1320;48.128;11.592;2023-03-11T08:24:12;5.90;90.30
2621;DHT22;1320;48.128;11.592;2023-03-11T08:26:38;5.90;89.30
2621;DHT22;1320;48.128;11.592;2023-03-11T08:29:04;5.90;89.90
2621;DHT22;1320;48.128;11.592;2023-03-11T08:31:32;5.70;88.40
2621;DHT22;1320;48.128;11.592;2023-03-11T08:34:03;5.60;89.40
2621;DHT22;1320;48.128;11.592;2023-03-11T08:36:29;5.50;88.80
2621;DHT22;1320;48.128;11.592;2023-03-11T08:38:55;5.50;88.60
2621;DHT22;1320;48.128;11.592;2023-03-11T08:41:21;5.40;89.00
2621;DHT22;1320;48.128;11.592;2023-03-11T08:43:46;5.40;90.10
2621;DHT22;1320;48.128;11.592;2023-03-11T08:46:39;5.60;90.00
2621;DHT22;1320;48.128;11.592;2023-03-11T08:49:05;5.90;88.80
2621;DHT22;1320;48.128;11.592;2023-03-11T08:51:32;6.10;89.00
2621;DHT22;1320;48.128;11.592;2023-03-11T08:53:59;6.20;88.80
2621;DHT22;1320;48.128;11.592;2023-03-11T08:56:25;6.40;88.50
2621;DHT22;1320;48.128;11.592;2023-03-11T08:58:51;6.50;87.80
2621;DHT22;1320;48.128;11.592;2023-03-11T09:01:17;6.40;85.80
2621;DHT22;1320;48.128;11.592;2023-03-11T09:03:44;6.30;87.10
2621;DHT22;1320;48.128;11.592;2023-03-11T09:06:12;6.10;86.90
2621;DHT22;1320;48.128;11.592;2023-03-11T09:08:40;6.10;85.50
2621;DHT22;1320;48.128;11.592;2023-03-11T09:11:06;5.90;85.30
2621;DHT22;1320;48.128;11.592;2023-03-11T09:13:32;5.70;86.30
2621;DHT22;1320;48.128;11.592;2023-03-11T09:15:58;5.70;85.60
2621;DHT22;1320;48.128;11.592;2023-03-11T09:18:23;5.60;86.50
2621;DHT22;1320;48.128;11.592;2023-03-11T09:20:49;5.60;86.00
2621;DHT22;1320;48.128;11.592;2023-03-11T09:23:16;5.70;85.80
2621;DHT22;1320;48.128;11.592;2023-03-11T09:25:42;5.80;84.50
2621;DHT22;1320;48.128;11.592;2023-03-11T09:28:08;5.80;84.20
2621;DHT22;1320;48.128;11.592;2023-03-11T09:30:34;5.80;85.10
2621;DHT22;1320;48.128;11.592;2023-03-11T09:33:00;6.00;83.90
2621;DHT22;1320;48.128;11.592;2023-03-11T09:35:26;6.10;83.00
2621;DHT22;1320;48.128;11.592;2023-03-11T09:37:52;6.20;83.60
2621;DHT22;1320;48.128;11.592;2023-03-11T09:45:37;7.10;79.00
2621;DHT22;1320;48.128;11.592;2023-03-11T09:53:42;7.40;77.10
2621;DHT22;1320;48.128;11.592;2023-03-11T09:56:14;7.70;76.20
2621;DHT22;1320;48.128;11.592;2023-03-11T09:58:43;8.00;76.90
2621;DHT22;1320;48.128;11.592;2023-03-11T10:03:40;8.50;73.60
2621;DHT22;1320;48.128;11.592;2023-03-11T10:06:35;8.70;71.70
2621;DHT22;1320;48.128;11.592;2023-03-11T10:17:59;8.80;73.50
2621;DHT22;1320;48.128;11.592;2023-03-11T10:20:41;8.70;72.30
2621;DHT22;1320;48.128;11.592;2023-03-11T10:26:28;8.30;73.90
2621;DHT22;1320;48.128;11.592;2023-03-11T10:31:47;8.40;73.60
2621;DHT22;1320;48.128;11.592;2023-03-11T10:34:24;8.50;71.50
2621;DHT22;1320;48.128;11.592;2023-03-11T10:37:00;8.50;72.50
2621;DHT22;1320;48.128;11.592;2023-03-11T10:39:29;8.50;73.30
2621;DHT22;1320;48.128;11.592;2023-03-11T10:41:59;8.60;71.70
2621;DHT22;1320;48.128;11.592;2023-03-11T10:44:36;8.60;70.90
2621;DHT22;1320;48.128;11.592;2023-03-11T10:47:03;8.50;71.90
2621;DHT22;1320;48.128;11.592;2023-03-11T10:49:29;8.60;72.10
2621;DHT22;1320;48.128;11.592;2023-03-11T10:51:55;8.50;72.50
2621;DHT22;1320;48.128;11.592;2023-03-11T10:54:29;8.60;69.70
2621;DHT22;1320;48.128;11.592;2023-03-11T10:59:54;8.20;71.00
2621;DHT22;1320;48.128;11.592;2023-03-11T11:02:27;8.10;69.00
2621;DHT22;1320;48.128;11.592;2023-03-11T11:08:00;7.90;70.20
2621;DHT22;1320;48.128;11.592;2023-03-11T11:10:27;7.80;72.30
2621;DHT22;1320;48.128;11.592;2023-03-11T11:12:54;7.80;72.70
2621;DHT22;1320;48.128;11.592;2023-03-11T11:15:30;8.00;71.90
2621;DHT22;1320;48.128;11.592;2023-03-11T11:17:59;8.00;72.50
2621;DHT22;1320;48.128;11.592;2023-03-11T11:20:27;8.10;74.90
2621;DHT22;1320;48.128;11.592;2023-03-11T11:28:07;8.90;75.60
2621;DHT22;1320;48.128;11.592;2023-03-11T11:33:22;9.20;73.20
2621;DHT22;1320;48.128;11.592;2023-03-11T11:35:53;9.20;74.10
2621;DHT22;1320;48.128;11.592;2023-03-11T11:38:21;9.30;73.90
2621;DHT22;1320;48.128;11.592;2023-03-11T11:40:52;9.30;73.20
2621;DHT22;1320;48.128;11.592;2023-03-11T11:44:04;9.30;72.50
2621;DHT22;1320;48.128;11.592;2023-03-11T11:46:19;9.30;73.50
2621;DHT22;1320;48.128;11.592;2023-03-11T11:51:29;9.60;71.50
2621;DHT22;1320;48.128;11.592;2023-03-11T11:56:25;9.80;71.90
2621;DHT22;1320;48.128;11.592;2023-03-11T11:58:51;9.90;71.00
2621;DHT22;1320;48.128;11.592;2023-03-11T12:01:48;9.90;72.00
2621;DHT22;1320;48.128;11.592;2023-03-11T12:04:31;9.80;70.70
2621;DHT22;1320;48.128;11.592;2023-03-11T12:20:54;9.70;68.30
2621;DHT22;1320;48.128;11.592;2023-03-11T12:31:17;9.60;69.40
2621;DHT22;1320;48.128;11.592;2023-03-11T12:33:54;9.60;69.20
2621;DHT22;1320;48.128;11.592;2023-03-11T12:36:28;9.70;69.60
2621;DHT22;1320;48.128;11.592;2023-03-11T12:38:57;9.80;70.70
2621;DHT22;1320;48.128;11.592;2023-03-11T12:41:34;10.10;68.70
2621;DHT22;1320;48.128;11.592;2023-03-11T12:49:23;10.40;68.10
2621;DHT22;1320;48.128;11.592;2023-03-11T12:52:18;10.30;67.70
2621;DHT22;1320;48.128;11.592;2023-03-11T12:54:46;10.20;68.20
2621;DHT22;1320;48.128;11.592;2023-03-11T13:10:36;10.90;67.50
2621;DHT22;1320;48.128;11.592;2023-03-11T13:13:22;11.00;67.70
2621;DHT22;1320;48.128;11.592;2023-03-11T13:15:48;11.10;67.70
2621;DHT22;1320;48.128;11.592;2023-03-11T13:18:24;11.20;66.20
2621;DHT22;1320;48.128;11.592;2023-03-11T13:20:54;11.20;65.50
2621;DHT22;1320;48.128;11.592;2023-03-11T13:23:27;11.20;65.20
2621;DHT22;1320;48.128;11.592;2023-03-11T13:26:01;11.20;65.60
2621;DHT22;1320;48.128;11.592;2023-03-11T13:28:43;11.40;65.60
2621;DHT22;1320;48.128;11.592;2023-03-11T13:44:59;11.60;65.80
2621;DHT22;1320;48.128;11.592;2023-03-11T13:47:25;11.50;66.40
2621;DHT22;1320;48.128;11.592;2023-03-11T13:49:59;11.50;66.20
2621;DHT22;1320;48.128;11.592;2023-03-11T13:52:30;11.70;66.70
2621;DHT22;1320;48.128;11.592;2023-03-11T13:55:03;11.80;66.30
2621;DHT22;1320;48.128;11.592;2023-03-11T13:57:33;11.80;66.00
2621;DHT22;1320;48.128;11.592;2023-03-11T14:00:29;11.80;64.60
2621;DHT22;1320;48.128;11.592;2023-03-11T14:03:01;11.80;65.20
2621;DHT22;1320;48.128;11.592;2023-03-11T14:05:41;11.90;65.80
2621;DHT22;1320;48.128;11.592;2023-03-11T14:08:21;12.00;65.60
2621;DHT22;1320;48.128;11.592;2023-03-11T14:10:53;12.10;64.70
2621;DHT22;1320;48.128;11.592;2023-03-11T14:13:20;12.30;65.20
2621;DHT22;1320;48.128;11.592;2023-03-11T14:16:07;12.50;64.30
2621;DHT22;1320;48.128;11.592;2023-03-11T14:18:39;12.70;67.20
2621;DHT22;1320;48.128;11.592;2023-03-11T14:21:16;12.70;64.10
2621;DHT22;1320;48.128;11.592;2023-03-11T14:23:45;13.00;64.10
2621;DHT22;1320;48.128;11.592;2023-03-11T14:26:22;13.10;63.40
2621;DHT22;1320;48.128;11.592;2023-03-11T14:28:51;13.00;63.20
2621;DHT22;1320;48.128;11.592;2023-03-11T14:31:23;13.00;62.70
2621;DHT22;1320;48.128;11.592;2023-03-11T14:34:00;13.00;63.60
2621;DHT22;1320;48.128;11.592;2023-03-11T14:36:46;12.80;63.50
2621;DHT22;1320;48.128;11.592;2023-03-11T14:42:17;12.90;62.10
2621;DHT22;1320;48.128;11.592;2023-03-11T14:45:10;12.90;61.50
2621;DHT22;1320;48.128;11.592;2023-03-11T14:50:27;13.10;62.40
2621;DHT22;1320;48.128;11.592;2023-03-11T14:55:29;13.10;61.00
2621;DHT22;1320;48.128;11.592;2023-03-11T14:57:58;13.20;60.80
2621;DHT22;1320;48.128;11.592;2023-03-11T15:00:28;13.30;60.60
2621;DHT22;1320;48.128;11.592;2023-03-11T15:03:16;13.50;61.50
2621;DHT22;1320;48.128;11.592;2023-03-11T15:05:49;13.80;61.70
2621;DHT22;1320;48.128;11.592;2023-03-11T15:08:18;14.20;60.90
2621;DHT22;1320;48.128;11.592;2023-03-11T15:13:35;14.40;60.70
2621;DHT22;1320;48.128;11.592;2023-03-11T15:16:04;14.50;60.40
2621;DHT22;1320;48.128;11.592;2023-03-11T15:18:33;14.70;59.90
2621;DHT22;1320;48.128;11.592;2023-03-11T15:21:19;14.70;59.80
2621;DHT22;1320;48.128;11.592;2023-03-11T15:26:23;14.70;59.20
2621;DHT22;1320;48.128;11.592;2023-03-11T15:28:58;14.60;59.80
2621;DHT22;1320;48.128;11.592;2023-03-11T15:33:49;14.10;59.30
2621;DHT22;1320;48.128;11.592;2023-03-11T15:36:37;13.90;60.00
2621;DHT22;1320;48.128;11.592;2023-03-11T15:39:15;13.90;61.10
2621;DHT22;1320;48.128;11.592;2023-03-11T15:41:44;14.10;61.10
2621;DHT22;1320;48.128;11.592;2023-03-11T15:44:40;14.10;60.20
2621;DHT22;1320;48.128;11.592;2023-03-11T15:47:14;14.10;61.30
2621;DHT22;1320;48.128;11.592;2023-03-11T15:49:41;14.10;61.50
2621;DHT22;1320;48.128;11.592;2023-03-11T15:52:07;13.80;62.00
2621;DHT22;1320;48.128;11.592;2023-03-11T15:54:33;13.10;62.60
2621;DHT22;1320;48.128;11.592;2023-03-11T15:57:00;12.30;63.70
2621;DHT22;1320;48.128;11.592;2023-03-11T15:59:27;11.70;64.80
2621;DHT22;1320;48.128;11.592;2023-03-11T16:01:53;11.20;65.40
2621;DHT22;1320;48.128;11.592;2023-03-11T16:04:20;10.90;66.50
2621;DHT22;1320;48.128;11.592;2023-03-11T16:06:46;10.50;66.90
2621;DHT22;1320;48.128;11.592;2023-03-11T16:09:12;10.10;67.40
2621;DHT22;1320;48.128;11.592;2023-03-11T16:11:40;9.60;69.20
2621;DHT22;1320;48.128;11.592;2023-03-11T16:14:12;9.30;71.80
2621;DHT22;1320;48.128;11.592;2023-03-11T16:16:39;9.00;70.40
2621;DHT22;1320;48.128;11.592;2023-03-11T16:19:05;8.80;71.00
2621;DHT22;1320;48.128;11.592;2023-03-11T16:21:34;8.70;71.70
2621;DHT22;1320;48.128;11.592;2023-03-11T16:24:00;8.50;71.70
2621;DHT22;1320;48.128;11.592;2023-03-11T16:26:26;8.30;72.50
2621;DHT22;1320;48.128;11.592;2023-03-11T16:28:52;8.20;73.80
2621;DHT22;1320;48.128;11.592;2023-03-11T16:31:18;8.00;74.20
2621;DHT22;1320;48.128;11.592;2023-03-11T16:33:43;7.70;74.50
2621;DHT22;1320;48.128;11.592;2023-03-11T16:36:10;7.50;74.80
2621;DHT22;1320;48.128;11.592;2023-03-11T16:38:47;7.30;75.40
2621;DHT22;1320;48.128;11.592;2023-03-11T16:41:14;7.20;76.50
2621;DHT22;1320;48.128;11.592;2023-03-11T16:43:40;7.10;76.90
2621;DHT22;1320;48.128;11.592;2023-03-11T16:46:06;6.90;77.80
2621;DHT22;1320;48.128;11.592;2023-03-11T16:48:31;6.80;77.70
2621;DHT22;1320;48.128;11.592;2023-03-11T16:50:57;6.70;78.20
2621;DHT22;1320;48.128;11.592;2023-03-11T16:53:23;6.60;78.10
2621;DHT22;1320;48.128;11.592;2023-03-11T16:55:49;6.50;78.60
2621;DHT22;1320;48.128;11.592;2023-03-11T16:58:15;6.50;78.80
2621;DHT22;1320;48.128;11.592;2023-03-11T17:00:41;6.40;79.30
2621;DHT22;1320;48.128;11.592;2023-03-11T17:03:09;6.30;79.40
2621;DHT22;1320;48.128;11.592;2023-03-11T17:08:02;6.20;78.80
2621;DHT22;1320;48.128;11.592;2023-03-11T17:10:40;6.20;79.90
2621;DHT22;1320;48.128;11.592;2023-03-11T17:13:09;6.20;79.50
2621;DHT22;1320;48.128;11.592;2023-03-11T17:15:35;6.20;79.80
2621;DHT22;1320;48.128;11.592;2023-03-11T17:18:03;6.20;79.90
2621;DHT22;1320;48.128;11.592;2023-03-11T17:20:32;6.10;79.90
2621;DHT22;1320;48.128;11.592;2023-03-11T17:22:59;6.10;80.30
2621;DHT22;1320;48.128;11.592;2023-03-11T17:25:25;6.10;80.10
2621;DHT22;1320;48.128;11.592;2023-03-11T17:27:50;6.00;80.20
2621;DHT22;1320;48.128;11.592;2023-03-11T17:30:16;5.90;80.20
2621;DHT22;1320;48.128;11.592;2023-03-11T17:32:43;5.90;80.40
2621;DHT22;1320;48.128;11.592;2023-03-11T17:35:08;5.90;80.50
2621;DHT22;1320;48.128;11.592;2023-03-11T17:37:34;5.80;80.70
2621;DHT22;1320;48.128;11.592;2023-03-11T17:40:00;5.80;80.50
2621;DHT22;1320;48.128;11.592;2023-03-11T17:42:25;5.80;80.50
2621;DHT22;1320;48.128;11.592;2023-03-11T17:44:54;5.70;81.00
2621;DHT22;1320;48.128;11.592;2023-03-11T17:47:20;5.70;81.10
2621;DHT22;1320;48.128;11.592;2023-03-11T17:49:50;5.80;81.40
2621;DHT22;1320;48.128;11.592;2023-03-11T17:52:16;5.80;81.60
2621;DHT22;1320;48.128;11.592;2023-03-11T17:54:41;5.80;81.30
2621;DHT22;1320;48.128;11.592;2023-03-11T17:57:07;5.80;81.00
2621;DHT22;1320;48.128;11.592;2023-03-11T17:59:33;5.80;81.00
2621;DHT22;1320;48.128;11.592;2023-03-11T18:01:58;5.80;81.10
2621;DHT22;1320;48.128;11.592;2023-03-11T18:04:24;5.70;81.20
2621;DHT22;1320;48.128;11.592;2023-03-11T18:06:50;5.70;81.60
2621;DHT22;1320;48.128;11.592;2023-03-11T18:09:17;5.60;81.60
2621;DHT22;1320;48.128;11.592;2023-03-11T18:11:43;5.60;81.60
2621;DHT22;1320;48.128;11.592;2023-03-11T18:14:08;5.60;82.00
2621;DHT22;1320;48.128;11.592;2023-03-11T18:16:35;5.50;82.40
2621;DHT22;1320;48.128;11.592;2023-03-11T18:19:01;5.40;82.20
2621;DHT22;1320;48.128;11.592;2023-03-11T18:21:28;5.40;82.70